createdAt,value
2023-02-27T04:40:36.544Z,23.00
2023-02-27T04:51:19.947Z,23.80
2023-02-27T05:02:12.603Z,23.90
2023-02-27T05:12:52.936Z,23.30
2023-02-27T05:23:53.596Z,24.20
2023-02-27T05:34:39.653Z,26.10
2023-02-27T05:45:22.358Z,24.30
2023-02-27T05:56:01.700Z,23.00
2023-02-27T06:06:37.322Z,23.00
2023-02-27T06:17:12.659Z,23.70
2023-02-27T06:27:48.641Z,24.10
2023-02-27T06:38:24.626Z,24.00
2023-02-27T06:49:00.238Z,23.40
2023-02-27T06:59:36.070Z,20.60
2023-02-27T07:10:13.927Z,13.80
2023-02-27T07:20:55.072Z,11.10
2023-02-27T07:31:30.899Z,7.40
2023-02-27T07:42:06.560Z,2.80
2023-02-27T07:52:44.231Z,4.20
2023-02-27T08:03:20.019Z,1.70
2023-02-27T08:14:00.496Z,1.00
2023-02-27T08:24:36.983Z,1.00
2023-02-27T08:35:13.211Z,1.00
2023-02-27T08:45:49.687Z,1.00
2023-02-27T08:56:27.921Z,1.00
2023-02-27T09:07:03.842Z,1.00
2023-02-27T09:17:39.334Z,1.00
2023-02-27T09:28:15.646Z,1.00
2023-02-27T09:38:51.446Z,1.00
2023-02-27T09:49:34.279Z,1.00
2023-02-27T10:00:45.802Z,1.00
2023-02-27T10:11:41.410Z,1.00
2023-02-27T10:22:26.421Z,1.00
2023-02-27T10:33:15.016Z,1.80
2023-02-27T10:43:56.795Z,3.90
2023-02-27T10:54:32.520Z,4.40
2023-02-27T11:05:20.500Z,4.10
2023-02-27T11:16:18.013Z,4.20
2023-02-27T11:26:57.182Z,6.00
2023-02-27T11:37:36.792Z,7.50
2023-02-27T11:48:47.587Z,6.70
2023-02-27T11:59:38.965Z,7.40
2023-02-27T12:10:25.467Z,7.00
2023-02-27T12:21:06.135Z,7.40
2023-02-27T12:31:44.340Z,8.10
2023-02-27T12:42:27.925Z,8.70
2023-02-27T12:53:21.378Z,8.40
2023-02-27T13:04:03.350Z,8.60
2023-02-27T13:14:57.312Z,8.80
2023-02-27T13:25:36.722Z,8.80
2023-02-27T13:36:26.035Z,9.20
2023-02-27T13:47:29.722Z,7.30
2023-02-27T13:58:05.834Z,8.70
2023-02-27T14:08:50.932Z,8.30
2023-02-27T14:19:29.194Z,7.90
2023-02-27T14:30:09.911Z,6.90
2023-02-27T14:40:55.124Z,7.00
2023-02-27T14:51:33.411Z,6.20
2023-02-27T15:02:25.451Z,5.20
2023-02-27T15:13:02.244Z,4.50
2023-02-27T15:23:37.596Z,5.10
2023-02-27T15:34:15.223Z,4.50
2023-02-27T15:44:51.160Z,4.70
2023-02-27T15:55:34.630Z,4.90
2023-02-27T16:06:21.544Z,4.70
2023-02-27T16:16:57.051Z,2.80
2023-02-27T16:27:32.596Z,3.20
2023-02-27T16:38:09.931Z,3.70
2023-02-27T16:48:48.974Z,4.20
2023-02-27T16:59:30.282Z,4.20
2023-02-27T17:10:05.869Z,3.90
2023-02-27T17:20:41.476Z,4.00
2023-02-27T17:31:22.716Z,4.10
2023-02-27T17:41:58.731Z,5.30
2023-02-27T17:52:37.694Z,7.00
2023-02-27T18:03:13.261Z,7.30
2023-02-27T18:13:50.360Z,7.40
2023-02-27T18:24:26.110Z,7.70
2023-02-27T18:35:01.956Z,8.30
2023-02-27T18:45:37.883Z,9.80
2023-02-27T18:56:15.896Z,9.80
2023-02-27T19:06:51.944Z,10.30
2023-02-27T19:17:28.109Z,10.50
2023-02-27T19:28:05.097Z,10.40
2023-02-27T19:38:40.958Z,11.20
2023-02-27T19:49:16.862Z,11.10
2023-02-27T19:59:52.810Z,10.80
2023-02-27T20:10:28.221Z,12.10
2023-02-27T20:21:07.247Z,12.50
2023-02-27T20:31:46.046Z,12.30
2023-02-27T20:42:21.957Z,12.80
2023-02-27T20:52:57.834Z,13.60
2023-02-27T21:03:38.482Z,13.80
2023-02-27T21:14:14.617Z,14.50
2023-02-27T21:24:52.344Z,15.20
2023-02-27T21:35:28.752Z,15.50
2023-02-27T21:46:06.395Z,16.20
2023-02-27T21:56:43.229Z,16.80
2023-02-27T22:07:19.059Z,16.60
2023-02-27T22:17:55.536Z,17.10
2023-02-27T22:28:32.960Z,18.00
